Lebanon, MO (65536)

4:29 AM CST on February 23, 2017 (GMT -0600)
S. Newport, Conway | | Change Station

Elev 1394 ft 37.50 °N, 92.83 °W | Updated 50 seconds ago

Fog
Fog
52.5 °F
Feels Like 52.5 °F
N
3.1
Wind Variable Wind from South
Gusts 6.0 mph

Today
High -- | Low -- °F
--% Chance of Precip.
Yesterday
High -- | Low -- °F
Precip. -- in
Pressure 29.68 in
Visibility 1.0 miles
Clouds
Dew Point 52 °F
Humidity 98%
Rainfall 0.00 in
Snow Depth Not available.
6:49 AM 5:58 PM
Waning Crescent, 11% visible
SPECI KTBN 231018Z AUTO 16005KT 1SM R14/4500FT BR VV001 12/12 A2969 RMK AO2 SLP051
Pressure 29.68 in
Visibility 1.0 miles
Clouds
Dew Point 52 °F
Humidity 98%
Rainfall 0.00 in
Snow Depth Not available.
6:49 AM 5:58 PM
Waning Crescent, 11% visible
SPECI KTBN 231018Z AUTO 16005KT 1SM R14/4500FT BR VV001 12/12 A2969 RMK AO2 SLP051

Get Your Daily Forecast Email!

Thanks for signing up!

Be on the lookout for a verification email in your inbox.

You'll start receiving the daily forecast at 8 AM.

×

10-Day Weather Forecast

Almanac

Astronomy

Feb. 23, 2017 Rise Set
Actual Time
Civil Twilight
Nautical Twilight
Astronomical Twilight
Moon
Length of Visible Light
Length of Day
Tomorrow will be .
, % of the Moon is Illuminated

Today's Extremes

State Highs State Lows

Community

WunderPhotos

Upload Photos

1,962,540 photos uploaded!

WunderBlog® & News

Nearby

Air Quality

  Air Quality AQ Index Pollutant
Not available.

Snow Depth

Station Depth Elevation

Earthquake Activity

City Distance Mag. Time & Date
Minimum magnitude displayed is 2.5.

Coastal Water Temperatures

Place Temperature

Stations

Nearby Weather Stations

Station Location Temp. Windchill Dew Point Humidity Wind Precip. Elev Updated Type
                   

Watches & Warnings

There are currently no watches in effect.